createdAt,value
2019-03-15T00:04:08.408Z,75.13
2019-03-15T00:06:35.014Z,75.16
2019-03-15T00:09:01.601Z,75.13
2019-03-15T00:11:28.207Z,75.28
2019-03-15T00:13:54.949Z,75.52
2019-03-15T00:16:21.661Z,75.66
2019-03-15T00:18:48.354Z,75.65
2019-03-15T00:21:14.989Z,75.76
2019-03-15T00:23:41.604Z,75.69
2019-03-15T00:26:08.312Z,75.91
2019-03-15T00:28:35.014Z,76.29
2019-03-15T00:31:01.630Z,76.31
2019-03-15T00:33:28.252Z,76.20
2019-03-15T00:35:54.946Z,76.35
2019-03-15T00:38:21.574Z,76.48
2019-03-15T00:40:48.196Z,76.71
2019-03-15T00:43:14.935Z,76.79
2019-03-15T00:45:41.616Z,76.59
2019-03-15T00:48:08.240Z,76.40
2019-03-15T00:50:34.836Z,76.52
2019-03-15T00:53:01.438Z,76.69
2019-03-15T00:55:28.037Z,76.99
2019-03-15T00:57:54.658Z,77.20
2019-03-15T01:00:21.444Z,77.31
2019-03-15T01:02:48.152Z,77.38
2019-03-15T01:05:15.305Z,77.48
2019-03-15T01:07:41.919Z,77.52
2019-03-15T01:10:23.324Z,77.29
2019-03-15T01:12:47.858Z,76.97
2019-03-15T01:15:14.567Z,76.76
2019-03-15T01:17:41.175Z,76.59
2019-03-15T01:20:07.827Z,76.57
2019-03-15T01:22:34.430Z,76.56
2019-03-15T01:25:01.118Z,76.30
2019-03-15T01:27:27.729Z,76.35
2019-03-15T01:29:54.323Z,76.35
2019-03-15T01:32:20.939Z,76.33
2019-03-15T01:34:47.547Z,76.37
2019-03-15T01:37:14.196Z,76.06
2019-03-15T01:39:40.793Z,75.97
2019-03-15T01:42:07.373Z,75.56
2019-03-15T01:44:33.983Z,75.50
2019-03-15T01:47:00.585Z,75.36
2019-03-15T01:49:27.178Z,75.33
2019-03-15T01:51:53.779Z,75.48
2019-03-15T01:54:20.373Z,75.63
2019-03-15T01:56:46.959Z,75.58
2019-03-15T01:59:13.573Z,75.55
2019-03-15T02:01:40.249Z,75.66
2019-03-15T02:04:06.861Z,75.79
2019-03-15T02:06:33.548Z,75.84
2019-03-15T02:09:00.151Z,76.23
2019-03-15T02:11:26.831Z,76.45
2019-03-15T02:13:53.429Z,76.81
2019-03-15T02:16:20.058Z,76.86
2019-03-15T02:18:46.750Z,77.00
2019-03-15T02:21:13.428Z,77.05
2019-03-15T02:23:40.028Z,77.10
2019-03-15T02:26:06.799Z,77.14
2019-03-15T02:28:33.395Z,76.88
2019-03-15T02:31:00.198Z,76.88
2019-03-15T02:33:26.905Z,76.78
2019-03-15T02:35:53.513Z,76.72
2019-03-15T02:38:20.205Z,76.73
2019-03-15T02:40:46.792Z,76.73
2019-03-15T02:43:13.381Z,76.78
2019-03-15T02:45:40.167Z,76.53
2019-03-15T02:48:06.789Z,76.35
2019-03-15T02:50:33.419Z,76.30
2019-03-15T02:53:00.016Z,76.30
2019-03-15T02:55:26.605Z,76.38
2019-03-15T02:57:53.201Z,76.54
2019-03-15T03:00:19.821Z,76.60
2019-03-15T03:02:46.508Z,76.55
2019-03-15T03:05:13.113Z,76.53
2019-03-15T03:07:39.733Z,76.42
2019-03-15T03:10:06.441Z,76.20
2019-03-15T03:12:33.121Z,75.75
2019-03-15T03:14:59.722Z,75.50
2019-03-15T03:17:26.432Z,75.48
2019-03-15T03:19:54.097Z,75.51
2019-03-15T03:22:31.869Z,75.58
2019-03-15T03:24:58.558Z,75.72
2019-03-15T03:27:25.191Z,75.68
2019-03-15T03:29:51.895Z,75.71
2019-03-15T03:32:18.553Z,75.67
2019-03-15T03:34:45.232Z,75.58
2019-03-15T03:37:11.950Z,75.56
2019-03-15T03:39:38.679Z,75.28
2019-03-15T03:42:05.386Z,75.26
2019-03-15T03:44:32.081Z,75.27
2019-03-15T03:46:58.719Z,75.13
2019-03-15T03:49:25.419Z,75.15
2019-03-15T03:51:52.119Z,75.21
2019-03-15T03:54:18.727Z,75.30
2019-03-15T03:56:45.361Z,75.27
2019-03-15T03:59:12.041Z,75.28
2019-03-15T04:01:38.635Z,75.33
2019-03-15T04:04:05.245Z,75.42
2019-03-15T04:06:31.861Z,75.51
2019-03-15T04:08:58.475Z,75.45
2019-03-15T04:11:25.093Z,75.45
2019-03-15T04:13:51.801Z,75.46
2019-03-15T04:16:18.496Z,75.43
2019-03-15T04:18:45.116Z,75.39
2019-03-15T04:21:11.755Z,75.35
2019-03-15T04:23:38.648Z,75.16
2019-03-15T04:26:17.114Z,75.03
2019-03-15T04:28:51.883Z,75.03
2019-03-15T04:31:18.493Z,75.03
2019-03-15T04:33:45.187Z,74.99
2019-03-15T04:36:11.785Z,74.95
2019-03-15T04:38:38.421Z,74.87
2019-03-15T04:41:05.014Z,76.29
2019-03-15T04:43:31.621Z,77.26
2019-03-15T04:45:58.317Z,74.91
2019-03-15T04:48:24.907Z,75.15
2019-03-15T04:50:51.518Z,74.11
2019-03-15T04:53:18.117Z,75.06
2019-03-15T04:55:44.718Z,73.98
2019-03-15T04:58:11.324Z,73.16
2019-03-15T05:00:37.930Z,72.18
2019-03-15T05:03:04.541Z,72.10
2019-03-15T05:05:31.137Z,71.59
2019-03-15T05:07:57.852Z,71.69
2019-03-15T05:10:24.456Z,72.57
2019-03-15T05:12:51.029Z,72.71
2019-03-15T05:15:17.638Z,72.63
2019-03-15T05:17:44.332Z,72.05
2019-03-15T05:20:10.974Z,72.77
2019-03-15T05:22:37.562Z,73.99
2019-03-15T05:25:04.247Z,74.11
2019-03-15T05:27:30.844Z,72.70
2019-03-15T05:29:57.454Z,72.99
2019-03-15T05:32:24.064Z,72.20
2019-03-15T05:34:50.657Z,71.80
2019-03-15T05:37:17.250Z,72.07
2019-03-15T05:39:43.964Z,70.02
2019-03-15T05:42:10.666Z,70.31
2019-03-15T05:44:37.394Z,69.69
2019-03-15T05:47:04.003Z,70.29
2019-03-15T05:49:30.729Z,70.74
2019-03-15T05:51:57.310Z,71.09
2019-03-15T05:54:23.932Z,70.65
2019-03-15T05:56:50.542Z,70.62
2019-03-15T05:59:17.222Z,70.69
2019-03-15T06:01:43.826Z,70.96
2019-03-15T06:04:10.466Z,71.10
2019-03-15T06:06:37.162Z,71.17
2019-03-15T06:09:04.518Z,71.34
2019-03-15T06:11:31.202Z,71.43
2019-03-15T06:13:57.810Z,71.57
2019-03-15T06:16:24.426Z,71.35
2019-03-15T06:18:51.011Z,71.51
2019-03-15T06:21:17.657Z,71.28
2019-03-15T06:23:44.362Z,71.46
2019-03-15T06:26:10.968Z,71.35
2019-03-15T06:28:37.581Z,71.41
2019-03-15T06:31:04.280Z,71.60
2019-03-15T06:33:31.125Z,71.82
2019-03-15T06:35:57.826Z,71.55
2019-03-15T06:38:24.529Z,71.81
2019-03-15T06:40:51.129Z,71.75
2019-03-15T06:43:17.753Z,71.41
2019-03-15T06:45:44.458Z,71.39
2019-03-15T06:48:11.177Z,70.63
2019-03-15T06:50:37.801Z,70.64
2019-03-15T06:53:04.454Z,70.91
2019-03-15T06:55:31.050Z,70.66
2019-03-15T06:57:57.747Z,70.18
2019-03-15T07:00:24.349Z,70.11
2019-03-15T07:02:51.045Z,71.01
2019-03-15T07:05:17.645Z,71.19
2019-03-15T07:07:44.243Z,71.77
2019-03-15T07:10:30.429Z,71.39
2019-03-15T07:12:57.029Z,72.20
2019-03-15T07:15:23.658Z,72.77
2019-03-15T07:17:50.278Z,72.81
2019-03-15T07:20:16.915Z,72.39
2019-03-15T07:22:43.521Z,72.23
2019-03-15T07:25:23.331Z,72.56
2019-03-15T07:27:49.931Z,72.39
2019-03-15T07:30:16.500Z,72.60
2019-03-15T07:32:43.116Z,73.02
2019-03-15T07:35:09.726Z,73.25
2019-03-15T07:37:36.458Z,73.13
2019-03-15T07:40:03.224Z,73.45
2019-03-15T07:42:29.816Z,73.74
2019-03-15T07:44:56.408Z,74.17
2019-03-15T07:47:23.010Z,74.34
2019-03-15T07:49:49.621Z,74.75
2019-03-15T07:52:16.347Z,74.81
2019-03-15T07:54:43.005Z,74.77
2019-03-15T07:57:09.718Z,75.00
2019-03-15T07:59:36.318Z,75.34
2019-03-15T08:02:02.955Z,75.68
2019-03-15T08:04:29.905Z,75.75
2019-03-15T08:06:56.514Z,75.81
2019-03-15T08:09:23.107Z,76.19
2019-03-15T08:11:49.721Z,75.69
2019-03-15T08:14:16.355Z,75.44
2019-03-15T08:16:43.062Z,75.77
2019-03-15T08:19:09.779Z,75.52
2019-03-15T08:21:36.475Z,75.85
2019-03-15T08:24:03.124Z,75.97
2019-03-15T08:26:30.257Z,75.65
2019-03-15T08:29:04.545Z,75.45
2019-03-15T08:31:31.251Z,75.34
2019-03-15T08:33:57.900Z,75.56
2019-03-15T08:36:24.627Z,75.28
2019-03-15T08:38:51.333Z,75.29
2019-03-15T08:41:18.039Z,75.00
2019-03-15T08:43:46.035Z,74.59
2019-03-15T08:46:23.202Z,74.69
2019-03-15T08:48:49.929Z,74.50
2019-03-15T08:51:16.533Z,74.42
2019-03-15T08:53:43.125Z,74.52
2019-03-15T08:56:09.837Z,75.05
2019-03-15T08:58:36.449Z,75.05
2019-03-15T09:01:03.177Z,74.82
2019-03-15T09:03:29.990Z,74.97
2019-03-15T09:05:56.738Z,74.81
2019-03-15T09:08:23.355Z,74.65
2019-03-15T09:10:50.060Z,74.84
2019-03-15T09:13:16.653Z,74.79
2019-03-15T09:15:43.270Z,74.59
2019-03-15T09:18:09.973Z,74.40
2019-03-15T09:20:36.605Z,74.29
2019-03-15T09:23:03.236Z,74.41
2019-03-15T09:25:29.944Z,74.39
2019-03-15T09:27:56.633Z,74.23
2019-03-15T09:30:24.449Z,73.89
2019-03-15T09:32:58.385Z,74.12
2019-03-15T09:35:25.104Z,73.79
2019-03-15T09:37:51.836Z,73.93
2019-03-15T09:40:18.368Z,74.51
2019-03-15T09:42:45.107Z,74.86
2019-03-15T09:45:11.835Z,74.69
2019-03-15T09:47:38.476Z,74.72
2019-03-15T09:50:05.631Z,74.58
2019-03-15T09:52:32.320Z,73.87
2019-03-15T09:54:58.986Z,74.31
2019-03-15T09:57:25.698Z,74.36
2019-03-15T09:59:52.318Z,74.89
2019-03-15T10:02:29.692Z,74.56
2019-03-15T10:05:09.683Z,74.76
2019-03-15T10:07:38.421Z,75.04
2019-03-15T10:10:13.594Z,74.95
2019-03-15T10:12:42.802Z,74.99
2019-03-15T10:15:09.920Z,74.81
2019-03-15T10:17:36.738Z,75.03
2019-03-15T10:20:03.712Z,75.06
2019-03-15T10:22:30.410Z,74.82
2019-03-15T10:24:57.055Z,74.94
2019-03-15T10:27:23.774Z,75.25
2019-03-15T10:29:50.497Z,75.40
2019-03-15T10:32:17.121Z,75.48
2019-03-15T10:34:43.744Z,75.53
2019-03-15T10:37:10.361Z,75.94
2019-03-15T10:39:37.036Z,75.27
2019-03-15T10:42:03.731Z,75.72
2019-03-15T10:44:30.328Z,75.46
2019-03-15T10:46:56.962Z,75.09
2019-03-15T10:49:23.675Z,75.75
2019-03-15T10:51:50.295Z,75.82
2019-03-15T10:54:16.922Z,75.91
2019-03-15T10:56:43.526Z,75.41
2019-03-15T10:59:10.240Z,75.60
2019-03-15T11:01:36.855Z,75.51
2019-03-15T11:04:03.501Z,75.92
2019-03-15T11:06:30.234Z,75.87
2019-03-15T11:08:56.934Z,75.46
2019-03-15T11:11:23.555Z,75.56
2019-03-15T11:13:50.147Z,75.06
2019-03-15T11:16:16.762Z,75.49
2019-03-15T11:18:43.398Z,75.65
2019-03-15T11:21:10.102Z,75.54
2019-03-15T11:23:36.701Z,75.36
2019-03-15T11:26:13.040Z,73.94
2019-03-15T11:28:38.240Z,73.02
2019-03-15T11:31:04.844Z,73.14
2019-03-15T11:33:31.457Z,75.29
2019-03-15T11:35:58.075Z,73.24
2019-03-15T11:38:24.770Z,73.29
2019-03-15T11:40:51.379Z,73.64
2019-03-15T11:43:18.113Z,73.71
2019-03-15T11:45:44.729Z,74.01
2019-03-15T11:48:11.382Z,74.09
2019-03-15T11:50:38.082Z,74.70
2019-03-15T11:53:04.707Z,74.55
2019-03-15T11:55:31.331Z,74.47
2019-03-15T11:57:58.076Z,74.50
2019-03-15T12:00:24.789Z,74.57
2019-03-15T12:02:51.501Z,74.66
2019-03-15T12:05:18.222Z,74.84
2019-03-15T12:07:44.910Z,74.88
2019-03-15T12:10:24.471Z,74.75
2019-03-15T12:12:51.171Z,75.10
2019-03-15T12:15:17.821Z,75.27
2019-03-15T12:17:44.517Z,75.81
2019-03-15T12:20:11.177Z,76.00
2019-03-15T12:22:37.911Z,76.06
2019-03-15T12:25:04.702Z,76.20
2019-03-15T12:27:31.434Z,76.35
2019-03-15T12:29:58.173Z,76.39
2019-03-15T12:32:24.799Z,76.83
2019-03-15T12:34:51.528Z,76.75
2019-03-15T12:37:18.239Z,76.51
2019-03-15T12:39:44.968Z,76.97
2019-03-15T12:42:11.696Z,77.01
2019-03-15T12:44:38.462Z,76.96
2019-03-15T12:47:06.332Z,76.93
2019-03-15T12:49:40.039Z,76.93
2019-03-15T12:52:06.773Z,77.21
2019-03-15T12:54:33.444Z,76.96
2019-03-15T12:57:00.038Z,77.15
2019-03-15T12:59:26.653Z,77.36
2019-03-15T13:01:53.280Z,77.45
2019-03-15T13:04:20.022Z,77.34
2019-03-15T13:06:46.635Z,77.47
2019-03-15T13:09:13.386Z,77.52
2019-03-15T13:11:40.102Z,77.53
2019-03-15T13:14:06.839Z,77.61
2019-03-15T13:16:33.556Z,77.70
2019-03-15T13:19:00.157Z,77.75
2019-03-15T13:21:26.879Z,78.03
2019-03-15T13:23:53.551Z,77.94
2019-03-15T13:26:20.239Z,78.05
2019-03-15T13:28:46.958Z,78.24
2019-03-15T13:31:13.675Z,78.24
2019-03-15T13:33:40.393Z,78.01
2019-03-15T13:36:07.206Z,78.12
2019-03-15T13:38:33.928Z,78.14
2019-03-15T13:41:00.555Z,77.82
2019-03-15T13:43:27.279Z,77.79
2019-03-15T13:45:54.012Z,77.74
2019-03-15T13:48:20.627Z,77.63
2019-03-15T13:50:47.253Z,77.36
2019-03-15T13:53:13.860Z,77.28
2019-03-15T13:55:40.511Z,77.28
2019-03-15T13:58:07.151Z,77.43
2019-03-15T14:00:33.862Z,77.44
2019-03-15T14:03:00.585Z,76.96
2019-03-15T14:05:27.209Z,76.97
2019-03-15T14:07:53.836Z,76.83
2019-03-15T14:10:20.373Z,76.52
2019-03-15T14:12:47.019Z,76.77
2019-03-15T14:15:13.756Z,76.52
2019-03-15T14:17:40.368Z,76.56
2019-03-15T14:20:07.815Z,76.02
2019-03-15T14:22:34.437Z,76.06
2019-03-15T14:25:01.046Z,76.13
2019-03-15T14:27:37.007Z,75.78
2019-03-15T14:30:06.449Z,75.91
2019-03-15T14:32:33.081Z,75.73
2019-03-15T14:34:59.795Z,76.21
2019-03-15T14:37:26.460Z,76.39
2019-03-15T14:39:53.196Z,75.71
2019-03-15T14:42:19.943Z,75.98
2019-03-15T14:44:46.687Z,76.13
2019-03-15T14:47:13.333Z,76.22
2019-03-15T14:49:40.049Z,76.44
2019-03-15T14:52:06.789Z,76.51
2019-03-15T14:54:33.402Z,76.71
2019-03-15T14:57:00.127Z,76.52
2019-03-15T14:59:26.726Z,76.31
2019-03-15T15:01:53.457Z,76.49
2019-03-15T15:04:20.157Z,76.59
2019-03-15T15:06:46.912Z,76.56
2019-03-15T15:09:13.534Z,76.84
2019-03-15T15:11:40.253Z,76.89
2019-03-15T15:14:06.968Z,77.17
2019-03-15T15:16:33.684Z,77.19
2019-03-15T15:19:00.405Z,77.08
2019-03-15T15:21:27.056Z,77.19
2019-03-15T15:23:53.774Z,77.19
2019-03-15T15:26:20.417Z,77.11
2019-03-15T15:28:47.160Z,77.31
2019-03-15T15:31:13.794Z,77.37
2019-03-15T15:33:40.526Z,77.36
2019-03-15T15:36:07.169Z,77.42
2019-03-15T15:38:33.882Z,77.42
2019-03-15T15:41:00.488Z,77.54
2019-03-15T15:43:27.128Z,77.78
2019-03-15T15:45:53.746Z,77.78
2019-03-15T15:48:20.451Z,78.03
2019-03-15T15:50:47.168Z,78.16
2019-03-15T15:53:13.890Z,78.24
2019-03-15T15:55:40.575Z,78.16
2019-03-15T15:58:17.429Z,78.26
2019-03-15T16:00:42.354Z,78.34
2019-03-15T16:03:09.072Z,78.44
2019-03-15T16:05:35.818Z,78.49
2019-03-15T16:08:02.535Z,78.58
2019-03-15T16:10:29.266Z,78.76
2019-03-15T16:12:55.973Z,78.87
2019-03-15T16:15:22.587Z,78.99
2019-03-15T16:17:49.234Z,79.12
2019-03-15T16:20:15.934Z,79.18
2019-03-15T16:22:42.551Z,79.24
2019-03-15T16:28:30.638Z,79.28
2019-03-15T16:30:52.353Z,79.42
2019-03-15T16:33:19.087Z,79.39
2019-03-15T16:35:45.736Z,79.50
2019-03-15T16:38:12.524Z,79.59
2019-03-15T16:40:39.235Z,79.74
2019-03-15T16:43:05.855Z,79.68
2019-03-15T16:45:32.482Z,79.58
2019-03-15T16:47:59.116Z,79.62
2019-03-15T16:50:25.755Z,79.60
2019-03-15T16:52:52.501Z,79.54
2019-03-15T16:55:19.813Z,79.52
2019-03-15T16:57:46.441Z,79.51
2019-03-15T17:00:13.178Z,79.57
2019-03-15T17:02:39.908Z,79.53
2019-03-15T17:05:07.098Z,79.55
2019-03-15T17:07:53.661Z,79.39
2019-03-15T17:10:20.410Z,79.18
2019-03-15T17:12:47.106Z,79.19
2019-03-15T17:15:13.847Z,78.70
2019-03-15T17:17:40.592Z,78.55
2019-03-15T17:20:07.577Z,78.50
2019-03-15T17:22:34.193Z,78.25
2019-03-15T17:25:00.887Z,78.30
2019-03-15T17:27:27.508Z,78.41
2019-03-15T17:29:54.222Z,78.48
2019-03-15T17:32:20.974Z,78.42
2019-03-15T17:34:47.657Z,78.47
2019-03-15T17:37:14.306Z,78.61
2019-03-15T17:39:43.932Z,78.62
2019-03-15T17:42:16.166Z,78.54
2019-03-15T17:44:42.785Z,78.47
2019-03-15T17:47:09.399Z,78.44
2019-03-15T17:49:36.005Z,78.47
2019-03-15T17:52:02.747Z,78.48
2019-03-15T17:54:29.479Z,78.38
2019-03-15T17:56:56.211Z,78.29
2019-03-15T17:59:22.817Z,78.26
2019-03-15T18:01:49.545Z,78.37
2019-03-15T18:04:16.155Z,78.15
2019-03-15T18:06:42.862Z,78.20
2019-03-15T18:09:09.552Z,78.21
2019-03-15T18:11:36.240Z,78.30
2019-03-15T18:14:02.852Z,78.35
2019-03-15T18:16:29.588Z,78.25
2019-03-15T18:18:56.303Z,78.31
2019-03-15T18:21:22.919Z,78.41
2019-03-15T18:23:49.612Z,78.26
2019-03-15T18:26:16.342Z,78.23
2019-03-15T18:28:43.060Z,77.92
2019-03-15T18:31:09.753Z,77.87
2019-03-15T18:33:36.393Z,77.94
2019-03-15T18:36:03.105Z,78.09
2019-03-15T18:38:29.742Z,78.28
2019-03-15T18:40:56.489Z,78.35
2019-03-15T18:43:23.206Z,78.29
2019-03-15T18:45:49.810Z,78.47
2019-03-15T18:48:16.419Z,78.59
2019-03-15T18:50:43.121Z,78.53
2019-03-15T18:53:09.724Z,78.49
2019-03-15T18:55:36.333Z,78.41
2019-03-15T18:58:03.043Z,78.36
2019-03-15T19:00:29.808Z,78.18
2019-03-15T19:03:00.121Z,77.92
2019-03-15T19:05:33.773Z,77.74
2019-03-15T19:08:00.469Z,77.59
2019-03-15T19:10:27.090Z,77.49
2019-03-15T19:12:53.704Z,77.20
2019-03-15T19:15:20.310Z,77.08
2019-03-15T19:17:46.946Z,77.00
2019-03-15T19:20:13.559Z,77.00
2019-03-15T19:22:40.423Z,76.74
2019-03-15T19:25:10.230Z,76.66
2019-03-15T19:27:37.088Z,76.62
2019-03-15T19:30:04.326Z,76.52
2019-03-15T19:32:33.358Z,76.65
2019-03-15T19:35:06.112Z,76.73
2019-03-15T19:37:32.858Z,76.71
2019-03-15T19:39:59.554Z,76.59
2019-03-15T19:42:26.244Z,76.47
2019-03-15T19:44:53.166Z,76.21
2019-03-15T19:47:19.867Z,76.07
2019-03-15T19:49:46.475Z,76.08
2019-03-15T19:52:13.105Z,75.75
2019-03-15T19:54:39.746Z,75.65
2019-03-15T19:57:06.564Z,75.85
2019-03-15T19:59:33.297Z,75.07
2019-03-15T20:01:59.995Z,74.95
2019-03-15T20:04:26.773Z,74.74
2019-03-15T20:06:55.372Z,74.64
2019-03-15T20:09:22.002Z,74.55
2019-03-15T20:11:48.711Z,74.59
2019-03-15T20:14:15.421Z,74.10
2019-03-15T20:16:42.046Z,73.87
2019-03-15T20:19:08.908Z,73.50
2019-03-15T20:21:35.600Z,73.32
2019-03-15T20:24:02.238Z,72.88
2019-03-15T20:26:28.939Z,71.94
2019-03-15T20:28:55.586Z,71.88
2019-03-15T20:31:22.372Z,71.36
2019-03-15T20:34:01.329Z,71.61
2019-03-15T20:36:27.416Z,71.20
2019-03-15T20:38:54.145Z,71.21
2019-03-15T20:41:20.849Z,71.14
2019-03-15T20:43:47.574Z,70.90
2019-03-15T20:46:15.903Z,70.62
2019-03-15T20:48:48.838Z,70.28
2019-03-15T20:51:15.555Z,70.31
2019-03-15T20:53:42.223Z,70.61
2019-03-15T20:56:08.933Z,69.95
2019-03-15T20:58:35.560Z,69.50
2019-03-15T21:01:02.364Z,69.72
2019-03-15T21:03:29.068Z,69.15
2019-03-15T21:05:55.705Z,69.32
2019-03-15T21:08:22.328Z,69.15
2019-03-15T21:10:51.489Z,68.79
2019-03-15T21:13:17.610Z,69.18
2019-03-15T21:15:44.335Z,68.40
2019-03-15T21:20:57.342Z,68.61
2019-03-15T21:23:23.961Z,68.67
2019-03-15T21:25:50.697Z,68.42
2019-03-15T21:28:17.345Z,68.35
2019-03-15T21:30:48.758Z,68.58
2019-03-15T21:33:19.250Z,68.53
2019-03-15T21:35:45.940Z,68.62
2019-03-15T21:38:12.552Z,68.37
2019-03-15T21:40:39.295Z,68.90
2019-03-15T21:43:06.027Z,68.96
2019-03-15T21:45:32.749Z,68.94
2019-03-15T21:47:59.494Z,69.04
2019-03-15T21:50:26.210Z,69.03
2019-03-15T21:52:52.930Z,68.81
2019-03-15T21:55:19.668Z,68.64
2019-03-15T21:57:46.363Z,68.59
2019-03-15T22:00:13.101Z,67.61
2019-03-15T22:02:39.825Z,67.54
2019-03-15T22:05:06.830Z,67.56
2019-03-15T22:07:33.520Z,67.56
2019-03-15T22:10:00.303Z,67.48
2019-03-15T22:12:27.045Z,67.27
2019-03-15T22:14:53.670Z,67.31
2019-03-15T22:17:20.279Z,66.93
2019-03-15T22:19:46.884Z,67.28
2019-03-15T22:22:13.585Z,67.55
2019-03-15T22:24:40.199Z,67.53
2019-03-15T22:27:06.902Z,67.37
2019-03-15T22:29:33.630Z,67.44
2019-03-15T22:32:00.335Z,67.40
2019-03-15T22:34:27.051Z,67.30
2019-03-15T22:36:53.768Z,67.30
2019-03-15T22:39:20.466Z,67.67
2019-03-15T22:41:47.168Z,67.78
2019-03-15T22:44:13.857Z,67.89
2019-03-15T22:46:40.481Z,68.24
2019-03-15T22:49:07.178Z,68.27
2019-03-15T22:51:33.893Z,68.30
2019-03-15T22:54:00.603Z,68.67
2019-03-15T22:56:27.330Z,68.59
2019-03-15T22:58:54.087Z,69.09
2019-03-15T23:01:30.212Z,68.95
2019-03-15T23:04:00.634Z,68.77
2019-03-15T23:06:27.256Z,68.84
2019-03-15T23:08:53.893Z,68.62
2019-03-15T23:11:20.509Z,69.15
2019-03-15T23:13:47.138Z,68.81
2019-03-15T23:16:13.783Z,68.54
2019-03-15T23:18:40.500Z,68.63
2019-03-15T23:21:07.182Z,68.92
2019-03-15T23:23:33.785Z,69.38
2019-03-15T23:26:00.519Z,69.04
2019-03-15T23:28:27.219Z,68.65
2019-03-15T23:30:56.933Z,69.05
2019-03-15T23:33:23.639Z,68.53
2019-03-15T23:35:54.187Z,68.97
2019-03-15T23:38:18.754Z,68.51
2019-03-15T23:40:45.389Z,68.81
2019-03-15T23:43:12.115Z,68.89
2019-03-15T23:45:38.746Z,68.52
2019-03-15T23:48:05.448Z,68.60
2019-03-15T23:50:32.071Z,68.16
2019-03-15T23:52:58.700Z,68.44
2019-03-15T23:55:25.392Z,68.71
2019-03-15T23:57:51.996Z,68.72
